KGUP/GUP METAR and TAF weather

Enter ICAO airport designator
Station Type Date Time Source
KGUP METAR 2019/08/19 06:53 UTC NOAA

KGUP 190653Z AUTO 00000KT 10SM CLR 14/M06 A3024 RMK AO2 SLP065 T01441056 403220117


Station Type Date Time Source
KGUP Decoded METAR 2019/08/19 06:53 UTC NOAA

Station name not available
Aug 19, 2019 - 02:53 AM EDT / 2019.08.19 0653 UTC
Wind: Calm:0
Visibility: 10 mile(s):0
Sky conditions: clear
Temperature: 57.9 F (14.4 C)
Dew Point: 21.9 F (-5.6 C)
Relative Humidity: 24%
Pressure (altimeter): 30.24 in. Hg (1024 hPa)
ob: KGUP 190653Z AUTO 00000KT 10SM CLR 14/M06 A3024 RMK AO2 SLP065 T01441056 403220117
cycle: 7

Station Type Date Time Source
KGUP TAF 2019/08/19 06:45 UTC NOAA

TAF KGUP 190542Z 1906/2006 VRB04KT P6SM FEW200
FM191800 24008KT P6SM FEW130
FM200200 VRB03KT P6SM FEW120

Example: see airport list